sensor_id;sensor_type;location;lat;lon;timestamp;P1;durP1;ratioP1;P2;durP2;ratioP2
10244;SDS011;5167;52.164;10.530;2023-07-31T00:00:13;7.20;;;2.00;;
10244;SDS011;5167;52.164;10.530;2023-07-31T00:02:39;5.93;;;1.50;;
10244;SDS011;5167;52.164;10.530;2023-07-31T00:05:04;5.85;;;1.88;;
10244;SDS011;5167;52.164;10.530;2023-07-31T00:07:31;4.97;;;1.60;;
10244;SDS011;5167;52.164;10.530;2023-07-31T00:09:57;2.65;;;1.60;;
10244;SDS011;5167;52.164;10.530;2023-07-31T00:12:22;4.75;;;1.77;;
10244;SDS011;5167;52.164;10.530;2023-07-31T00:14:48;2.80;;;1.70;;
10244;SDS011;5167;52.164;10.530;2023-07-31T00:17:14;3.60;;;2.08;;
10244;SDS011;5167;52.164;10.530;2023-07-31T00:19:39;3.30;;;1.33;;
10244;SDS011;5167;52.164;10.530;2023-07-31T00:22:05;5.65;;;1.80;;
10244;SDS011;5167;52.164;10.530;2023-07-31T00:24:31;4.20;;;1.70;;
10244;SDS011;5167;52.164;10.530;2023-07-31T00:26:56;4.68;;;2.00;;
10244;SDS011;5167;52.164;10.530;2023-07-31T00:29:22;3.10;;;1.48;;
10244;SDS011;5167;52.164;10.530;2023-07-31T00:31:47;3.85;;;1.40;;
10244;SDS011;5167;52.164;10.530;2023-07-31T00:34:13;4.10;;;1.33;;
10244;SDS011;5167;52.164;10.530;2023-07-31T00:36:38;4.15;;;1.63;;
10244;SDS011;5167;52.164;10.530;2023-07-31T00:39:04;4.25;;;1.77;;
10244;SDS011;5167;52.164;10.530;2023-07-31T00:41:29;3.28;;;1.38;;
10244;SDS011;5167;52.164;10.530;2023-07-31T00:43:55;3.70;;;1.73;;
10244;SDS011;5167;52.164;10.530;2023-07-31T00:46:21;3.03;;;1.50;;
10244;SDS011;5167;52.164;10.530;2023-07-31T00:48:46;2.88;;;1.67;;
10244;SDS011;5167;52.164;10.530;2023-07-31T00:51:12;3.15;;;1.45;;
10244;SDS011;5167;52.164;10.530;2023-07-31T00:53:38;5.53;;;1.85;;
10244;SDS011;5167;52.164;10.530;2023-07-31T00:56:04;4.03;;;1.85;;
10244;SDS011;5167;52.164;10.530;2023-07-31T00:58:30;3.40;;;1.55;;
10244;SDS011;5167;52.164;10.530;2023-07-31T01:00:56;6.57;;;1.52;;
10244;SDS011;5167;52.164;10.530;2023-07-31T01:03:21;3.80;;;1.58;;
10244;SDS011;5167;52.164;10.530;2023-07-31T01:08:44;4.03;;;1.40;;
10244;SDS011;5167;52.164;10.530;2023-07-31T01:11:27;4.45;;;1.30;;
10244;SDS011;5167;52.164;10.530;2023-07-31T01:13:54;3.75;;;1.50;;
10244;SDS011;5167;52.164;10.530;2023-07-31T01:16:20;2.60;;;1.65;;
10244;SDS011;5167;52.164;10.530;2023-07-31T01:18:46;2.17;;;1.50;;
10244;SDS011;5167;52.164;10.530;2023-07-31T01:26:56;2.08;;;1.35;;
10244;SDS011;5167;52.164;10.530;2023-07-31T01:29:36;5.15;;;1.60;;
10244;SDS011;5167;52.164;10.530;2023-07-31T01:32:08;1.67;;;1.30;;
10244;SDS011;5167;52.164;10.530;2023-07-31T01:34:35;2.80;;;1.30;;
10244;SDS011;5167;52.164;10.530;2023-07-31T01:37:02;2.80;;;1.30;;
10244;SDS011;5167;52.164;10.530;2023-07-31T01:39:28;2.25;;;1.35;;
10244;SDS011;5167;52.164;10.530;2023-07-31T01:41:53;5.20;;;1.48;;
10244;SDS011;5167;52.164;10.530;2023-07-31T01:44:19;2.47;;;1.63;;
10244;SDS011;5167;52.164;10.530;2023-07-31T01:46:44;1.92;;;1.27;;
10244;SDS011;5167;52.164;10.530;2023-07-31T01:49:10;2.38;;;1.13;;
10244;SDS011;5167;52.164;10.530;2023-07-31T01:51:35;1.58;;;0.98;;
10244;SDS011;5167;52.164;10.530;2023-07-31T01:54:01;2.90;;;1.10;;
10244;SDS011;5167;52.164;10.530;2023-07-31T01:56:27;1.85;;;1.02;;
10244;SDS011;5167;52.164;10.530;2023-07-31T01:58:53;2.97;;;1.20;;
10244;SDS011;5167;52.164;10.530;2023-07-31T02:01:18;2.08;;;1.20;;
10244;SDS011;5167;52.164;10.530;2023-07-31T02:03:44;2.45;;;0.90;;
10244;SDS011;5167;52.164;10.530;2023-07-31T02:06:09;1.00;;;1.00;;
10244;SDS011;5167;52.164;10.530;2023-07-31T02:08:35;2.63;;;1.15;;
10244;SDS011;5167;52.164;10.530;2023-07-31T02:11:00;1.83;;;1.27;;
10244;SDS011;5167;52.164;10.530;2023-07-31T02:13:26;1.00;;;1.00;;
10244;SDS011;5167;52.164;10.530;2023-07-31T02:15:51;2.85;;;1.05;;
10244;SDS011;5167;52.164;10.530;2023-07-31T02:18:17;1.40;;;1.05;;
10244;SDS011;5167;52.164;10.530;2023-07-31T02:20:43;0.98;;;0.95;;
10244;SDS011;5167;52.164;10.530;2023-07-31T02:23:11;0.80;;;0.80;;
10244;SDS011;5167;52.164;10.530;2023-07-31T02:25:36;1.20;;;1.17;;
10244;SDS011;5167;52.164;10.530;2023-07-31T02:28:02;3.28;;;1.40;;
10244;SDS011;5167;52.164;10.530;2023-07-31T02:30:27;3.70;;;1.35;;
10244;SDS011;5167;52.164;10.530;2023-07-31T02:32:53;1.90;;;1.25;;
10244;SDS011;5167;52.164;10.530;2023-07-31T02:35:18;1.35;;;0.90;;
10244;SDS011;5167;52.164;10.530;2023-07-31T02:37:44;1.13;;;1.10;;
10244;SDS011;5167;52.164;10.530;2023-07-31T02:40:09;1.55;;;1.08;;
10244;SDS011;5167;52.164;10.530;2023-07-31T02:42:35;1.58;;;0.90;;
10244;SDS011;5167;52.164;10.530;2023-07-31T02:45:01;4.25;;;1.02;;
10244;SDS011;5167;52.164;10.530;2023-07-31T02:47:26;1.83;;;1.00;;
10244;SDS011;5167;52.164;10.530;2023-07-31T02:49:52;1.88;;;1.77;;
10244;SDS011;5167;52.164;10.530;2023-07-31T02:52:17;1.63;;;1.30;;
10244;SDS011;5167;52.164;10.530;2023-07-31T02:54:43;1.08;;;0.98;;
10244;SDS011;5167;52.164;10.530;2023-07-31T02:57:08;2.55;;;0.98;;
10244;SDS011;5167;52.164;10.530;2023-07-31T02:59:34;1.63;;;1.00;;
10244;SDS011;5167;52.164;10.530;2023-07-31T03:01:59;2.80;;;1.20;;
10244;SDS011;5167;52.164;10.530;2023-07-31T03:04:25;1.63;;;1.00;;
10244;SDS011;5167;52.164;10.530;2023-07-31T03:06:50;1.08;;;1.08;;
10244;SDS011;5167;52.164;10.530;2023-07-31T03:09:16;1.80;;;1.00;;
10244;SDS011;5167;52.164;10.530;2023-07-31T03:11:41;0.80;;;0.80;;
10244;SDS011;5167;52.164;10.530;2023-07-31T03:14:07;1.40;;;0.93;;
10244;SDS011;5167;52.164;10.530;2023-07-31T03:16:32;3.53;;;0.98;;
10244;SDS011;5167;52.164;10.530;2023-07-31T03:18:58;1.73;;;1.00;;
10244;SDS011;5167;52.164;10.530;2023-07-31T03:21:23;1.75;;;1.00;;
10244;SDS011;5167;52.164;10.530;2023-07-31T03:23:49;2.67;;;1.20;;
10244;SDS011;5167;52.164;10.530;2023-07-31T03:26:14;1.30;;;1.00;;
10244;SDS011;5167;52.164;10.530;2023-07-31T03:28:40;3.53;;;1.10;;
10244;SDS011;5167;52.164;10.530;2023-07-31T03:31:05;1.48;;;0.98;;
10244;SDS011;5167;52.164;10.530;2023-07-31T03:33:31;1.00;;;1.00;;
10244;SDS011;5167;52.164;10.530;2023-07-31T03:35:56;2.40;;;1.08;;
10244;SDS011;5167;52.164;10.530;2023-07-31T03:38:22;1.58;;;1.00;;
10244;SDS011;5167;52.164;10.530;2023-07-31T03:40:47;1.30;;;1.20;;
10244;SDS011;5167;52.164;10.530;2023-07-31T03:43:13;3.22;;;1.50;;
10244;SDS011;5167;52.164;10.530;2023-07-31T03:45:40;4.28;;;2.33;;
10244;SDS011;5167;52.164;10.530;2023-07-31T03:48:05;1.13;;;1.10;;
10244;SDS011;5167;52.164;10.530;2023-07-31T03:50:32;2.85;;;1.30;;
10244;SDS011;5167;52.164;10.530;2023-07-31T03:52:58;0.95;;;0.90;;
10244;SDS011;5167;52.164;10.530;2023-07-31T03:55:23;1.55;;;1.30;;
10244;SDS011;5167;52.164;10.530;2023-07-31T03:57:49;1.42;;;1.10;;
10244;SDS011;5167;52.164;10.530;2023-07-31T04:00:14;3.15;;;1.20;;
10244;SDS011;5167;52.164;10.530;2023-07-31T04:02:40;1.90;;;0.98;;
10244;SDS011;5167;52.164;10.530;2023-07-31T04:05:05;2.35;;;1.20;;
10244;SDS011;5167;52.164;10.530;2023-07-31T04:07:31;1.58;;;1.20;;
10244;SDS011;5167;52.164;10.530;2023-07-31T04:09:57;3.33;;;1.38;;
10244;SDS011;5167;52.164;10.530;2023-07-31T04:12:22;2.92;;;1.23;;
10244;SDS011;5167;52.164;10.530;2023-07-31T04:14:48;2.10;;;0.98;;
10244;SDS011;5167;52.164;10.530;2023-07-31T04:17:13;1.63;;;1.13;;
10244;SDS011;5167;52.164;10.530;2023-07-31T04:19:39;1.75;;;1.17;;
10244;SDS011;5167;52.164;10.530;2023-07-31T04:22:04;3.33;;;1.05;;
10244;SDS011;5167;52.164;10.530;2023-07-31T04:24:30;0.93;;;0.93;;
10244;SDS011;5167;52.164;10.530;2023-07-31T04:26:55;3.85;;;0.77;;
10244;SDS011;5167;52.164;10.530;2023-07-31T04:29:21;0.80;;;0.80;;
10244;SDS011;5167;52.164;10.530;2023-07-31T04:31:47;2.47;;;0.95;;
10244;SDS011;5167;52.164;10.530;2023-07-31T04:34:13;0.93;;;0.80;;
10244;SDS011;5167;52.164;10.530;2023-07-31T04:36:38;0.80;;;0.80;;
10244;SDS011;5167;52.164;10.530;2023-07-31T04:39:04;1.30;;;1.20;;
10244;SDS011;5167;52.164;10.530;2023-07-31T04:41:30;2.80;;;1.05;;
10244;SDS011;5167;52.164;10.530;2023-07-31T04:43:55;1.10;;;0.95;;
10244;SDS011;5167;52.164;10.530;2023-07-31T04:46:21;1.25;;;0.98;;
10244;SDS011;5167;52.164;10.530;2023-07-31T04:48:46;1.10;;;0.98;;
10244;SDS011;5167;52.164;10.530;2023-07-31T04:51:12;1.25;;;1.00;;
10244;SDS011;5167;52.164;10.530;2023-07-31T04:53:37;2.28;;;1.10;;
10244;SDS011;5167;52.164;10.530;2023-07-31T04:56:03;1.98;;;1.00;;
10244;SDS011;5167;52.164;10.530;2023-07-31T04:58:28;1.75;;;1.02;;
10244;SDS011;5167;52.164;10.530;2023-07-31T05:00:54;1.65;;;0.95;;
10244;SDS011;5167;52.164;10.530;2023-07-31T05:03:19;1.55;;;1.10;;
10244;SDS011;5167;52.164;10.530;2023-07-31T05:05:45;1.10;;;1.00;;
10244;SDS011;5167;52.164;10.530;2023-07-31T05:08:11;1.40;;;0.98;;
10244;SDS011;5167;52.164;10.530;2023-07-31T05:10:36;1.80;;;0.95;;
10244;SDS011;5167;52.164;10.530;2023-07-31T05:13:02;3.42;;;0.90;;
10244;SDS011;5167;52.164;10.530;2023-07-31T05:15:28;1.25;;;1.15;;
10244;SDS011;5167;52.164;10.530;2023-07-31T05:17:53;0.85;;;0.82;;
10244;SDS011;5167;52.164;10.530;2023-07-31T05:20:19;0.85;;;0.80;;
10244;SDS011;5167;52.164;10.530;2023-07-31T05:22:45;1.20;;;1.10;;
10244;SDS011;5167;52.164;10.530;2023-07-31T05:25:10;1.25;;;0.80;;
10244;SDS011;5167;52.164;10.530;2023-07-31T05:27:36;0.75;;;0.75;;
10244;SDS011;5167;52.164;10.530;2023-07-31T05:30:01;0.60;;;0.60;;
10244;SDS011;5167;52.164;10.530;2023-07-31T05:32:27;2.28;;;1.33;;
10244;SDS011;5167;52.164;10.530;2023-07-31T05:34:53;1.48;;;0.90;;
10244;SDS011;5167;52.164;10.530;2023-07-31T05:37:18;1.65;;;0.95;;
10244;SDS011;5167;52.164;10.530;2023-07-31T05:39:44;1.42;;;0.80;;
10244;SDS011;5167;52.164;10.530;2023-07-31T05:42:10;1.23;;;0.80;;
10244;SDS011;5167;52.164;10.530;2023-07-31T05:44:35;1.20;;;1.10;;
10244;SDS011;5167;52.164;10.530;2023-07-31T05:47:01;2.10;;;0.90;;
10244;SDS011;5167;52.164;10.530;2023-07-31T05:49:26;0.93;;;0.88;;
10244;SDS011;5167;52.164;10.530;2023-07-31T05:51:52;2.15;;;1.45;;
10244;SDS011;5167;52.164;10.530;2023-07-31T05:54:17;2.30;;;1.13;;
10244;SDS011;5167;52.164;10.530;2023-07-31T05:56:43;1.13;;;1.02;;
10244;SDS011;5167;52.164;10.530;2023-07-31T05:59:09;1.92;;;1.20;;
10244;SDS011;5167;52.164;10.530;2023-07-31T06:01:37;2.20;;;1.30;;
10244;SDS011;5167;52.164;10.530;2023-07-31T06:04:02;4.88;;;1.60;;
10244;SDS011;5167;52.164;10.530;2023-07-31T06:06:28;2.42;;;1.67;;
10244;SDS011;5167;52.164;10.530;2023-07-31T06:08:54;4.25;;;1.90;;
10244;SDS011;5167;52.164;10.530;2023-07-31T06:11:22;2.83;;;1.75;;
10244;SDS011;5167;52.164;10.530;2023-07-31T06:13:48;5.20;;;2.20;;
10244;SDS011;5167;52.164;10.530;2023-07-31T06:16:15;2.53;;;2.03;;
10244;SDS011;5167;52.164;10.530;2023-07-31T06:18:41;3.85;;;2.35;;
10244;SDS011;5167;52.164;10.530;2023-07-31T06:21:07;4.05;;;2.05;;
10244;SDS011;5167;52.164;10.530;2023-07-31T06:23:33;3.45;;;2.70;;
10244;SDS011;5167;52.164;10.530;2023-07-31T06:25:59;6.13;;;3.58;;
10244;SDS011;5167;52.164;10.530;2023-07-31T06:28:28;5.00;;;2.53;;
10244;SDS011;5167;52.164;10.530;2023-07-31T06:30:54;7.13;;;2.97;;
10244;SDS011;5167;52.164;10.530;2023-07-31T06:33:20;6.28;;;2.97;;
10244;SDS011;5167;52.164;10.530;2023-07-31T06:35:45;4.18;;;2.95;;
10244;SDS011;5167;52.164;10.530;2023-07-31T06:38:11;8.40;;;3.15;;
10244;SDS011;5167;52.164;10.530;2023-07-31T06:40:36;6.50;;;3.90;;
10244;SDS011;5167;52.164;10.530;2023-07-31T06:43:02;9.25;;;3.30;;
10244;SDS011;5167;52.164;10.530;2023-07-31T06:45:35;7.18;;;3.15;;
10244;SDS011;5167;52.164;10.530;2023-07-31T06:48:02;7.57;;;3.40;;
10244;SDS011;5167;52.164;10.530;2023-07-31T06:50:28;6.25;;;2.70;;
10244;SDS011;5167;52.164;10.530;2023-07-31T06:52:55;5.95;;;3.10;;
10244;SDS011;5167;52.164;10.530;2023-07-31T06:55:20;5.70;;;3.17;;
10244;SDS011;5167;52.164;10.530;2023-07-31T06:57:47;4.70;;;2.90;;
10244;SDS011;5167;52.164;10.530;2023-07-31T07:00:14;3.45;;;2.63;;
10244;SDS011;5167;52.164;10.530;2023-07-31T07:02:41;7.47;;;2.70;;
10244;SDS011;5167;52.164;10.530;2023-07-31T07:05:06;4.00;;;2.25;;
10244;SDS011;5167;52.164;10.530;2023-07-31T07:07:33;4.97;;;3.05;;
10244;SDS011;5167;52.164;10.530;2023-07-31T07:09:58;10.55;;;3.97;;
10244;SDS011;5167;52.164;10.530;2023-07-31T07:12:31;5.53;;;3.28;;
10244;SDS011;5167;52.164;10.530;2023-07-31T07:14:57;6.75;;;3.53;;
10244;SDS011;5167;52.164;10.530;2023-07-31T07:17:23;7.32;;;4.00;;
10244;SDS011;5167;52.164;10.530;2023-07-31T07:19:49;7.60;;;3.95;;
10244;SDS011;5167;52.164;10.530;2023-07-31T07:22:15;7.18;;;4.15;;
10244;SDS011;5167;52.164;10.530;2023-07-31T07:24:41;10.90;;;3.92;;
10244;SDS011;5167;52.164;10.530;2023-07-31T07:27:06;9.40;;;4.45;;
10244;SDS011;5167;52.164;10.530;2023-07-31T07:29:33;13.05;;;4.60;;
10244;SDS011;5167;52.164;10.530;2023-07-31T07:31:59;8.55;;;4.85;;
10244;SDS011;5167;52.164;10.530;2023-07-31T07:34:26;8.05;;;4.47;;
10244;SDS011;5167;52.164;10.530;2023-07-31T07:36:52;8.18;;;4.35;;
10244;SDS011;5167;52.164;10.530;2023-07-31T07:39:18;7.15;;;3.90;;
10244;SDS011;5167;52.164;10.530;2023-07-31T07:41:43;12.13;;;5.18;;
10244;SDS011;5167;52.164;10.530;2023-07-31T07:44:09;11.45;;;4.57;;
10244;SDS011;5167;52.164;10.530;2023-07-31T07:46:34;11.80;;;4.45;;
10244;SDS011;5167;52.164;10.530;2023-07-31T07:49:00;10.00;;;4.15;;
10244;SDS011;5167;52.164;10.530;2023-07-31T07:51:25;9.18;;;4.55;;
10244;SDS011;5167;52.164;10.530;2023-07-31T07:53:51;15.60;;;5.00;;
10244;SDS011;5167;52.164;10.530;2023-07-31T07:56:16;11.05;;;4.00;;
10244;SDS011;5167;52.164;10.530;2023-07-31T07:58:42;10.32;;;4.93;;
10244;SDS011;5167;52.164;10.530;2023-07-31T08:01:07;10.38;;;5.00;;
10244;SDS011;5167;52.164;10.530;2023-07-31T08:03:33;9.60;;;4.57;;
10244;SDS011;5167;52.164;10.530;2023-07-31T08:05:59;7.28;;;5.05;;
10244;SDS011;5167;52.164;10.530;2023-07-31T08:08:25;8.10;;;3.70;;
10244;SDS011;5167;52.164;10.530;2023-07-31T08:10:50;8.60;;;4.30;;
10244;SDS011;5167;52.164;10.530;2023-07-31T08:13:16;12.00;;;4.43;;
10244;SDS011;5167;52.164;10.530;2023-07-31T08:15:41;10.32;;;4.47;;
10244;SDS011;5167;52.164;10.530;2023-07-31T08:18:07;7.47;;;3.70;;
10244;SDS011;5167;52.164;10.530;2023-07-31T08:20:33;8.88;;;3.92;;
10244;SDS011;5167;52.164;10.530;2023-07-31T08:22:59;11.13;;;4.35;;
10244;SDS011;5167;52.164;10.530;2023-07-31T08:25:24;13.13;;;4.28;;
10244;SDS011;5167;52.164;10.530;2023-07-31T08:27:50;14.30;;;4.78;;
10244;SDS011;5167;52.164;10.530;2023-07-31T08:30:17;8.75;;;3.55;;
10244;SDS011;5167;52.164;10.530;2023-07-31T08:32:43;10.10;;;4.32;;
10244;SDS011;5167;52.164;10.530;2023-07-31T08:35:09;8.50;;;4.00;;
10244;SDS011;5167;52.164;10.530;2023-07-31T08:37:35;7.93;;;4.35;;
10244;SDS011;5167;52.164;10.530;2023-07-31T08:40:00;10.63;;;4.05;;
10244;SDS011;5167;52.164;10.530;2023-07-31T08:42:26;8.63;;;4.65;;
10244;SDS011;5167;52.164;10.530;2023-07-31T08:44:52;9.77;;;4.80;;
10244;SDS011;5167;52.164;10.530;2023-07-31T08:47:19;7.32;;;4.35;;
10244;SDS011;5167;52.164;10.530;2023-07-31T08:49:46;8.88;;;4.45;;
10244;SDS011;5167;52.164;10.530;2023-07-31T08:52:13;8.52;;;4.28;;
10244;SDS011;5167;52.164;10.530;2023-07-31T08:54:39;7.63;;;4.93;;
10244;SDS011;5167;52.164;10.530;2023-07-31T08:57:05;6.93;;;3.80;;
10244;SDS011;5167;52.164;10.530;2023-07-31T08:59:31;6.75;;;4.05;;
10244;SDS011;5167;52.164;10.530;2023-07-31T09:02:02;13.30;;;4.45;;
10244;SDS011;5167;52.164;10.530;2023-07-31T09:04:32;11.43;;;4.35;;
10244;SDS011;5167;52.164;10.530;2023-07-31T09:07:02;6.10;;;3.50;;
10244;SDS011;5167;52.164;10.530;2023-07-31T09:09:29;8.45;;;4.00;;
10244;SDS011;5167;52.164;10.530;2023-07-31T09:11:57;9.25;;;4.70;;
10244;SDS011;5167;52.164;10.530;2023-07-31T09:14:24;5.00;;;3.53;;
10244;SDS011;5167;52.164;10.530;2023-07-31T09:16:51;4.95;;;3.55;;
10244;SDS011;5167;52.164;10.530;2023-07-31T09:19:24;10.52;;;3.80;;
10244;SDS011;5167;52.164;10.530;2023-07-31T09:21:54;5.10;;;3.70;;
10244;SDS011;5167;52.164;10.530;2023-07-31T09:24:26;7.47;;;3.20;;
10244;SDS011;5167;52.164;10.530;2023-07-31T09:26:53;5.78;;;3.25;;
10244;SDS011;5167;52.164;10.530;2023-07-31T09:29:23;4.45;;;2.78;;
10244;SDS011;5167;52.164;10.530;2023-07-31T09:31:50;7.45;;;3.45;;
10244;SDS011;5167;52.164;10.530;2023-07-31T09:34:15;4.57;;;3.30;;
10244;SDS011;5167;52.164;10.530;2023-07-31T09:39:08;9.45;;;3.60;;
10244;SDS011;5167;52.164;10.530;2023-07-31T09:41:43;8.05;;;3.10;;
10244;SDS011;5167;52.164;10.530;2023-07-31T09:44:09;11.95;;;3.65;;
10244;SDS011;5167;52.164;10.530;2023-07-31T09:46:36;7.65;;;3.55;;
10244;SDS011;5167;52.164;10.530;2023-07-31T09:51:40;9.20;;;3.30;;
10244;SDS011;5167;52.164;10.530;2023-07-31T09:56:39;5.30;;;3.13;;
10244;SDS011;5167;52.164;10.530;2023-07-31T09:59:07;7.50;;;3.15;;
10244;SDS011;5167;52.164;10.530;2023-07-31T10:01:43;8.52;;;3.20;;
10244;SDS011;5167;52.164;10.530;2023-07-31T10:04:10;5.10;;;2.72;;
10244;SDS011;5167;52.164;10.530;2023-07-31T10:06:36;6.00;;;3.17;;
10244;SDS011;5167;52.164;10.530;2023-07-31T10:09:05;5.63;;;2.50;;
10244;SDS011;5167;52.164;10.530;2023-07-31T10:11:38;4.18;;;2.40;;
10244;SDS011;5167;52.164;10.530;2023-07-31T10:14:07;3.72;;;2.08;;
10244;SDS011;5167;52.164;10.530;2023-07-31T10:16:33;3.45;;;2.28;;
10244;SDS011;5167;52.164;10.530;2023-07-31T10:19:04;2.78;;;2.15;;
10244;SDS011;5167;52.164;10.530;2023-07-31T10:21:31;3.85;;;2.00;;
10244;SDS011;5167;52.164;10.530;2023-07-31T10:23:59;4.78;;;2.60;;
10244;SDS011;5167;52.164;10.530;2023-07-31T10:26:28;3.30;;;2.17;;
10244;SDS011;5167;52.164;10.530;2023-07-31T10:28:55;3.72;;;2.17;;
10244;SDS011;5167;52.164;10.530;2023-07-31T10:31:22;3.55;;;1.95;;
10244;SDS011;5167;52.164;10.530;2023-07-31T10:33:49;4.53;;;2.42;;
10244;SDS011;5167;52.164;10.530;2023-07-31T10:36:17;3.45;;;2.28;;
10244;SDS011;5167;52.164;10.530;2023-07-31T10:38:43;5.32;;;2.70;;
10244;SDS011;5167;52.164;10.530;2023-07-31T10:41:09;2.83;;;2.10;;
10244;SDS011;5167;52.164;10.530;2023-07-31T10:43:36;5.22;;;1.98;;
10244;SDS011;5167;52.164;10.530;2023-07-31T10:46:06;2.72;;;2.00;;
10244;SDS011;5167;52.164;10.530;2023-07-31T10:48:33;3.28;;;2.10;;
10244;SDS011;5167;52.164;10.530;2023-07-31T10:50:59;3.15;;;2.17;;
10244;SDS011;5167;52.164;10.530;2023-07-31T10:53:26;3.47;;;2.40;;
10244;SDS011;5167;52.164;10.530;2023-07-31T10:55:56;5.63;;;2.63;;
10244;SDS011;5167;52.164;10.530;2023-07-31T10:58:23;2.78;;;2.17;;
10244;SDS011;5167;52.164;10.530;2023-07-31T11:00:49;5.68;;;2.33;;
10244;SDS011;5167;52.164;10.530;2023-07-31T11:03:18;3.55;;;2.33;;
10244;SDS011;5167;52.164;10.530;2023-07-31T11:05:53;3.53;;;1.90;;
10244;SDS011;5167;52.164;10.530;2023-07-31T11:08:30;4.82;;;2.58;;
10244;SDS011;5167;52.164;10.530;2023-07-31T11:13:29;5.07;;;2.35;;
10244;SDS011;5167;52.164;10.530;2023-07-31T11:15:55;5.88;;;2.05;;
10244;SDS011;5167;52.164;10.530;2023-07-31T11:18:20;2.72;;;1.80;;
10244;SDS011;5167;52.164;10.530;2023-07-31T11:20:46;2.58;;;1.95;;
10244;SDS011;5167;52.164;10.530;2023-07-31T11:23:12;4.32;;;2.00;;
10244;SDS011;5167;52.164;10.530;2023-07-31T11:25:40;2.70;;;2.25;;
10244;SDS011;5167;52.164;10.530;2023-07-31T11:28:10;3.30;;;1.83;;
10244;SDS011;5167;52.164;10.530;2023-07-31T11:30:37;3.83;;;2.20;;
10244;SDS011;5167;52.164;10.530;2023-07-31T11:33:05;4.07;;;2.38;;
10244;SDS011;5167;52.164;10.530;2023-07-31T11:35:33;4.32;;;1.98;;
10244;SDS011;5167;52.164;10.530;2023-07-31T11:38:06;4.72;;;2.15;;
10244;SDS011;5167;52.164;10.530;2023-07-31T11:40:40;4.63;;;1.77;;
10244;SDS011;5167;52.164;10.530;2023-07-31T11:43:09;5.40;;;2.00;;
10244;SDS011;5167;52.164;10.530;2023-07-31T11:45:36;4.25;;;1.90;;
10244;SDS011;5167;52.164;10.530;2023-07-31T11:48:03;5.03;;;1.92;;
10244;SDS011;5167;52.164;10.530;2023-07-31T11:50:28;5.47;;;2.38;;
10244;SDS011;5167;52.164;10.530;2023-07-31T11:53:00;3.42;;;2.17;;
10244;SDS011;5167;52.164;10.530;2023-07-31T11:55:28;1.88;;;1.67;;
10244;SDS011;5167;52.164;10.530;2023-07-31T11:57:55;4.70;;;2.00;;
10244;SDS011;5167;52.164;10.530;2023-07-31T12:00:23;3.33;;;2.20;;
10244;SDS011;5167;52.164;10.530;2023-07-31T12:02:50;4.10;;;1.80;;
10244;SDS011;5167;52.164;10.530;2023-07-31T12:05:16;3.75;;;2.15;;
10244;SDS011;5167;52.164;10.530;2023-07-31T12:07:46;2.65;;;1.75;;
10244;SDS011;5167;52.164;10.530;2023-07-31T12:10:28;4.50;;;1.73;;
10244;SDS011;5167;52.164;10.530;2023-07-31T12:12:56;3.42;;;2.08;;
10244;SDS011;5167;52.164;10.530;2023-07-31T12:15:28;2.83;;;1.92;;
10244;SDS011;5167;52.164;10.530;2023-07-31T12:17:54;3.35;;;1.92;;
10244;SDS011;5167;52.164;10.530;2023-07-31T12:20:20;3.30;;;1.73;;
10244;SDS011;5167;52.164;10.530;2023-07-31T12:22:45;3.40;;;1.55;;
10244;SDS011;5167;52.164;10.530;2023-07-31T12:25:15;2.08;;;1.60;;
10244;SDS011;5167;52.164;10.530;2023-07-31T12:27:44;2.80;;;1.75;;
10244;SDS011;5167;52.164;10.530;2023-07-31T12:30:29;9.95;;;1.75;;
10244;SDS011;5167;52.164;10.530;2023-07-31T12:32:56;2.25;;;1.63;;
10244;SDS011;5167;52.164;10.530;2023-07-31T12:35:21;3.92;;;1.67;;
10244;SDS011;5167;52.164;10.530;2023-07-31T12:37:47;3.08;;;1.80;;
10244;SDS011;5167;52.164;10.530;2023-07-31T12:40:13;3.33;;;1.65;;
10244;SDS011;5167;52.164;10.530;2023-07-31T12:42:38;3.90;;;1.98;;
10244;SDS011;5167;52.164;10.530;2023-07-31T12:45:04;1.85;;;1.52;;
10244;SDS011;5167;52.164;10.530;2023-07-31T12:47:30;3.45;;;1.73;;
10244;SDS011;5167;52.164;10.530;2023-07-31T12:49:55;2.20;;;1.80;;
10244;SDS011;5167;52.164;10.530;2023-07-31T12:52:21;3.72;;;2.60;;
10244;SDS011;5167;52.164;10.530;2023-07-31T12:54:46;1.75;;;1.30;;
10244;SDS011;5167;52.164;10.530;2023-07-31T12:57:12;2.13;;;1.70;;
10244;SDS011;5167;52.164;10.530;2023-07-31T12:59:37;1.50;;;1.08;;
10244;SDS011;5167;52.164;10.530;2023-07-31T13:02:03;3.05;;;1.60;;
10244;SDS011;5167;52.164;10.530;2023-07-31T13:04:28;2.85;;;1.80;;
10244;SDS011;5167;52.164;10.530;2023-07-31T13:06:54;1.98;;;1.45;;
10244;SDS011;5167;52.164;10.530;2023-07-31T13:09:20;1.65;;;1.50;;
10244;SDS011;5167;52.164;10.530;2023-07-31T13:11:45;1.73;;;1.38;;
10244;SDS011;5167;52.164;10.530;2023-07-31T13:14:10;2.63;;;1.50;;
10244;SDS011;5167;52.164;10.530;2023-07-31T13:16:37;1.95;;;1.20;;
10244;SDS011;5167;52.164;10.530;2023-07-31T13:19:02;2.42;;;1.33;;
10244;SDS011;5167;52.164;10.530;2023-07-31T13:21:28;2.15;;;1.45;;
10244;SDS011;5167;52.164;10.530;2023-07-31T13:23:54;5.70;;;1.80;;
10244;SDS011;5167;52.164;10.530;2023-07-31T13:26:22;2.47;;;1.48;;
10244;SDS011;5167;52.164;10.530;2023-07-31T13:28:48;2.78;;;1.88;;
10244;SDS011;5167;52.164;10.530;2023-07-31T13:31:13;3.38;;;1.33;;
10244;SDS011;5167;52.164;10.530;2023-07-31T13:33:39;1.77;;;1.33;;
10244;SDS011;5167;52.164;10.530;2023-07-31T13:36:04;5.60;;;3.67;;
10244;SDS011;5167;52.164;10.530;2023-07-31T13:38:31;3.17;;;1.77;;
10244;SDS011;5167;52.164;10.530;2023-07-31T13:40:57;1.60;;;1.33;;
10244;SDS011;5167;52.164;10.530;2023-07-31T13:43:22;2.03;;;1.40;;
10244;SDS011;5167;52.164;10.530;2023-07-31T13:45:48;1.35;;;1.17;;
10244;SDS011;5167;52.164;10.530;2023-07-31T13:48:13;0.85;;;0.85;;
10244;SDS011;5167;52.164;10.530;2023-07-31T13:50:39;0.95;;;0.75;;
10244;SDS011;5167;52.164;10.530;2023-07-31T13:53:04;0.88;;;0.80;;
10244;SDS011;5167;52.164;10.530;2023-07-31T13:55:30;0.63;;;0.63;;
10244;SDS011;5167;52.164;10.530;2023-07-31T13:57:55;0.85;;;0.73;;
10244;SDS011;5167;52.164;10.530;2023-07-31T14:00:21;0.90;;;0.90;;
10244;SDS011;5167;52.164;10.530;2023-07-31T14:02:47;0.70;;;0.70;;
10244;SDS011;5167;52.164;10.530;2023-07-31T14:05:12;1.27;;;0.85;;
10244;SDS011;5167;52.164;10.530;2023-07-31T14:07:38;0.68;;;0.68;;
10244;SDS011;5167;52.164;10.530;2023-07-31T14:10:03;0.85;;;0.85;;
10244;SDS011;5167;52.164;10.530;2023-07-31T14:12:29;1.27;;;0.82;;
10244;SDS011;5167;52.164;10.530;2023-07-31T14:14:55;1.25;;;1.00;;
10244;SDS011;5167;52.164;10.530;2023-07-31T14:17:21;1.67;;;0.80;;
10244;SDS011;5167;52.164;10.530;2023-07-31T14:19:46;1.02;;;0.90;;
10244;SDS011;5167;52.164;10.530;2023-07-31T14:22:12;3.63;;;0.98;;
10244;SDS011;5167;52.164;10.530;2023-07-31T14:24:37;1.20;;;1.05;;
10244;SDS011;5167;52.164;10.530;2023-07-31T14:27:03;0.73;;;0.73;;
10244;SDS011;5167;52.164;10.530;2023-07-31T14:29:29;1.40;;;0.85;;
10244;SDS011;5167;52.164;10.530;2023-07-31T14:31:55;2.47;;;1.08;;
10244;SDS011;5167;52.164;10.530;2023-07-31T14:34:20;1.30;;;1.20;;
10244;SDS011;5167;52.164;10.530;2023-07-31T14:36:46;1.00;;;0.80;;
10244;SDS011;5167;52.164;10.530;2023-07-31T14:39:11;1.67;;;0.93;;
10244;SDS011;5167;52.164;10.530;2023-07-31T14:41:37;1.10;;;0.80;;
10244;SDS011;5167;52.164;10.530;2023-07-31T14:44:02;1.10;;;0.98;;
10244;SDS011;5167;52.164;10.530;2023-07-31T14:46:28;1.73;;;1.10;;
10244;SDS011;5167;52.164;10.530;2023-07-31T14:48:54;1.23;;;1.10;;
10244;SDS011;5167;52.164;10.530;2023-07-31T14:51:19;1.50;;;1.20;;
10244;SDS011;5167;52.164;10.530;2023-07-31T14:53:45;2.15;;;1.30;;
10244;SDS011;5167;52.164;10.530;2023-07-31T14:56:12;2.47;;;1.33;;
10244;SDS011;5167;52.164;10.530;2023-07-31T14:58:37;1.55;;;0.80;;
10244;SDS011;5167;52.164;10.530;2023-07-31T15:01:03;1.75;;;1.30;;